Time;durP1;ratioP1;P1;durP2;ratioP2;P2;SDS_P1;SDS_P2;PMS_P1;PMS_P2;Temp;Humidity;BMP_temperature;BMP_pressure;BME280_temperature;BME280_humidity;BME280_pressure;Samples;Min_cycle;Max_cycle;Signal;HPM_P1;HPM_P2
2023/05/08 00:01:43;;;;;;;1.83;1.73;;;19.80;66.10;;;;;;4956623;28;20205;-67
2023/05/08 00:04:09;;;;;;;1.67;1.40;;;19.80;66.20;;;;;;4956379;28;20569;-67
2023/05/08 00:06:34;;;;;;;1.80;1.70;;;19.70;66.00;;;;;;4956551;28;20190;-67
2023/05/08 00:09:00;;;;;;;3.17;1.63;;;19.70;66.10;;;;;;4956394;28;20634;-66
2023/05/08 00:11:26;;;;;;;2.03;1.50;;;19.70;66.00;;;;;;4973471;28;20245;-66
2023/05/08 00:13:52;;;;;;;2.35;1.77;;;19.70;66.00;;;;;;4973546;28;20181;-66
2023/05/08 00:16:17;;;;;;;1.52;1.42;;;19.80;66.10;;;;;;4956378;28;20185;-66
2023/05/08 00:18:43;;;;;;;1.80;1.70;;;19.80;66.10;;;;;;4972704;28;20203;-67
2023/05/08 00:21:09;;;;;;;2.47;1.58;;;19.80;66.10;;;;;;4956419;28;20284;-67
2023/05/08 00:23:35;;;;;;;1.75;1.65;;;19.70;66.00;;;;;;4956311;28;20189;-67
2023/05/08 00:26:01;;;;;;;2.03;1.92;;;19.70;66.10;;;;;;4955726;28;20276;-66
2023/05/08 00:28:26;;;;;;;1.67;1.58;;;19.70;66.00;;;;;;4955931;28;20193;-67
2023/05/08 00:30:52;;;;;;;1.80;1.70;;;19.70;66.00;;;;;;4940128;28;20296;-67
2023/05/08 00:33:18;;;;;;;1.40;1.30;;;19.70;66.00;;;;;;4956315;28;20196;-67
2023/05/08 00:35:44;;;;;;;1.58;1.48;;;19.80;66.10;;;;;;4939832;28;20619;-67
2023/05/08 00:38:10;;;;;;;1.63;1.52;;;19.70;66.00;;;;;;4955483;28;20197;-66
2023/05/08 00:40:36;;;;;;;1.75;1.65;;;19.70;66.00;;;;;;4955924;28;20193;-67
2023/05/08 00:43:02;;;;;;;2.13;1.50;;;19.70;66.00;;;;;;4956027;28;20197;-67
2023/05/08 00:45:37;;;;;;;2.05;1.65;;;19.70;66.00;;;;;;4955753;28;20220;-67
2023/05/08 00:48:04;;;;;;;2.17;1.60;;;19.80;66.10;;;;;;4969792;28;20205;-66
2023/05/08 00:50:31;;;;;;;1.73;1.50;;;19.70;66.10;;;;;;4955968;28;20305;-67
2023/05/08 00:53:00;;;;;;;1.40;1.30;;;19.70;66.10;;;;;;4956210;28;20190;-67
2023/05/08 00:55:25;;;;;;;1.40;1.30;;;19.70;66.00;;;;;;4955618;28;20214;-67
2023/05/08 00:57:52;;;;;;;1.40;1.30;;;19.70;66.00;;;;;;4956072;28;20627;-66
2023/05/08 01:00:20;;;;;;;1.65;1.50;;;19.70;66.00;;;;;;4971864;28;20194;-67
2023/05/08 01:02:46;;;;;;;1.60;1.45;;;19.70;66.00;;;;;;4955777;28;20193;-67
2023/05/08 01:05:12;;;;;;;1.55;1.45;;;19.70;66.10;;;;;;4955417;28;20220;-67
2023/05/08 01:07:38;;;;;;;1.50;1.40;;;19.70;66.10;;;;;;4955765;28;20269;-67
2023/05/08 01:10:05;;;;;;;1.63;1.50;;;19.70;66.10;;;;;;4955961;28;20312;-67
2023/05/08 01:13:17;;;;;;;1.52;1.40;;;19.70;66.10;;;;;;4968592;28;20210;-67
2023/05/08 01:15:56;;;;;;;1.23;1.20;;;19.70;66.10;;;;;;4934364;28;20210;-67
2023/05/08 01:19:06;;;;;;;1.65;1.55;;;19.70;66.10;;;;;;4955888;28;20198;-67
2023/05/08 01:22:10;;;;;;;1.90;1.67;;;19.70;66.10;;;;;;4917335;28;20586;-67
2023/05/08 01:25:19;;;;;;;1.50;1.40;;;19.70;66.10;;;;;;4946819;28;20263;-65
2023/05/08 01:28:27;;;;;;;2.28;1.40;;;19.70;66.10;;;;;;4983080;28;20244;-68
2023/05/08 01:31:27;;;;;;;1.20;1.10;;;19.70;66.00;;;;;;4923644;28;20314;-66
2023/05/08 01:34:05;;;;;;;1.30;1.20;;;19.70;66.00;;;;;;4963521;28;20265;-67
2023/05/08 01:36:58;;;;;;;2.15;1.42;;;19.70;66.10;;;;;;4939554;28;20217;-66
2023/05/08 01:40:06;;;;;;;1.40;1.30;;;19.70;66.10;;;;;;4972006;28;20636;-67
2023/05/08 01:42:48;;;;;;;1.63;1.52;;;19.70;66.00;;;;;;4894501;28;20205;-67
2023/05/08 01:45:27;;;;;;;1.60;1.50;;;19.70;66.00;;;;;;4939265;28;20303;-67
2023/05/08 01:48:10;;;;;;;1.30;1.20;;;19.70;66.10;;;;;;4939818;28;20280;-67
2023/05/08 01:50:45;;;;;;;1.80;1.70;;;19.70;66.10;;;;;;4988788;28;20205;-67
2023/05/08 01:53:30;;;;;;;1.70;1.60;;;19.70;66.10;;;;;;4958740;28;20276;-68
2023/05/08 01:56:04;;;;;;;1.60;1.50;;;19.70;66.10;;;;;;4942403;28;20217;-68
2023/05/08 01:58:34;;;;;;;1.40;1.30;;;19.70;66.10;;;;;;4957944;28;20253;-67
2023/05/08 02:01:01;;;;;;;1.30;1.20;;;19.70;66.10;;;;;;4956682;28;20213;-67
2023/05/08 02:03:32;;;;;;;2.97;1.80;;;19.70;66.10;;;;;;4950765;28;20196;-67
2023/05/08 02:06:00;;;;;;;1.67;1.58;;;19.70;66.10;;;;;;4958423;28;20348;-67
2023/05/08 02:08:30;;;;;;;1.67;1.58;;;19.70;66.10;;;;;;4959028;28;20201;-67
2023/05/08 02:10:59;;;;;;;1.80;1.70;;;19.70;66.10;;;;;;4975879;28;20272;-66
2023/05/08 02:13:29;;;;;;;1.80;1.70;;;19.70;66.10;;;;;;4974548;28;20182;-67
2023/05/08 02:15:56;;;;;;;1.88;1.77;;;19.70;66.10;;;;;;4958269;28;20289;-67
2023/05/08 02:18:24;;;;;;;2.00;1.90;;;19.70;66.10;;;;;;4974327;28;20186;-66
2023/05/08 02:20:53;;;;;;;2.20;2.00;;;19.70;66.10;;;;;;4990640;28;20206;-67
2023/05/08 02:23:40;;;;;;;2.22;2.03;;;19.70;66.10;;;;;;4958218;28;20200;-67
2023/05/08 02:26:07;;;;;;;2.50;2.30;;;19.70;66.10;;;;;;4954994;28;20296;-66
2023/05/08 02:28:35;;;;;;;2.20;2.03;;;19.70;66.10;;;;;;4958354;28;20213;-67
2023/05/08 02:31:04;;;;;;;2.05;1.95;;;19.70;66.10;;;;;;4957960;28;20272;-67
2023/05/08 02:33:31;;;;;;;2.35;2.15;;;19.70;66.10;;;;;;4970921;28;20677;-67
2023/05/08 02:35:58;;;;;;;2.25;2.08;;;19.70;66.10;;;;;;4953786;28;20578;-67
2023/05/08 02:38:25;;;;;;;2.38;2.17;;;19.70;66.10;;;;;;4957869;28;20182;-66
2023/05/08 02:40:57;;;;;;;2.45;2.25;;;19.70;66.20;;;;;;4958195;28;20197;-67
2023/05/08 02:43:23;;;;;;;2.80;2.60;;;19.70;67.00;;;;;;4973288;28;20194;-66
2023/05/08 02:46:08;;;;;;;2.85;2.60;;;19.70;66.10;;;;;;4957956;28;20209;-67
2023/05/08 02:48:39;;;;;;;2.60;2.40;;;19.70;66.10;;;;;;4935236;28;20190;-67
2023/05/08 02:51:49;;;;;;;2.80;2.60;;;19.70;66.10;;;;;;4957655;28;20220;-67
2023/05/08 02:54:43;;;;;;;2.60;2.40;;;19.70;66.10;;;;;;4957708;28;20229;-67
2023/05/08 02:57:45;;;;;;;3.13;2.70;;;19.70;66.20;;;;;;4957581;28;20272;-67
2023/05/08 03:00:21;;;;;;;2.85;2.58;;;19.70;66.10;;;;;;4941561;28;20200;-66
2023/05/08 03:02:51;;;;;;;3.20;2.90;;;19.70;66.20;;;;;;4940718;28;20185;-67
2023/05/08 03:05:33;;;;;;;3.30;3.00;;;19.70;66.20;;;;;;4989835;28;20225;-66
2023/05/08 03:08:06;;;;;;;2.83;2.63;;;19.70;66.10;;;;;;4941671;28;20188;-67
2023/05/08 03:10:35;;;;;;;3.42;3.13;;;19.70;66.10;;;;;;4966138;28;20221;-67
2023/05/08 03:13:08;;;;;;;3.42;3.15;;;19.70;66.10;;;;;;4957622;28;20344;-67
2023/05/08 03:15:42;;;;;;;3.47;3.17;;;19.60;66.10;;;;;;4957482;28;20198;-66
2023/05/08 03:18:14;;;;;;;2.97;2.75;;;19.60;66.20;;;;;;4957569;28;20337;-66
2023/05/08 03:20:46;;;;;;;3.47;3.17;;;19.70;66.10;;;;;;4957560;28;20221;-67
2023/05/08 03:23:15;;;;;;;3.53;3.22;;;19.60;66.10;;;;;;4957109;28;20190;-66
2023/05/08 03:25:43;;;;;;;3.70;3.40;;;19.70;66.10;;;;;;4956998;28;20213;-66
2023/05/08 03:28:11;;;;;;;3.47;3.05;;;19.60;66.00;;;;;;4957331;28;20221;-66
2023/05/08 03:30:40;;;;;;;3.58;3.28;;;19.60;66.00;;;;;;4957508;28;20229;-66
2023/05/08 03:33:11;;;;;;;3.75;3.45;;;19.60;66.00;;;;;;4941623;28;20208;-66
2023/05/08 03:35:38;;;;;;;4.28;3.88;;;19.70;66.10;;;;;;4957078;28;20231;-67
2023/05/08 03:38:07;;;;;;;3.75;3.45;;;19.60;66.10;;;;;;4957314;28;20222;-67
2023/05/08 03:40:37;;;;;;;4.30;3.90;;;19.70;66.20;;;;;;4961744;28;20222;-67
2023/05/08 03:43:07;;;;;;;3.90;3.55;;;19.60;66.10;;;;;;4953544;28;20232;-67
2023/05/08 03:45:39;;;;;;;3.83;3.53;;;19.60;66.10;;;;;;4956909;28;20264;-67
2023/05/08 03:48:09;;;;;;;3.50;3.20;;;19.60;66.00;;;;;;4969869;28;20197;-67
2023/05/08 03:50:37;;;;;;;3.95;3.65;;;19.60;66.10;;;;;;4988820;28;20209;-66
2023/05/08 03:53:05;;;;;;;4.00;3.63;;;19.60;66.10;;;;;;4956633;28;20186;-66
2023/05/08 03:55:31;;;;;;;3.97;3.67;;;19.60;66.10;;;;;;4956072;28;20210;-67
2023/05/08 03:58:20;;;;;;;4.00;3.70;;;19.60;66.10;;;;;;4956563;28;20178;-67
2023/05/08 04:01:17;;;;;;;3.83;3.53;;;19.70;66.20;;;;;;4950633;28;20217;-67
2023/05/08 04:04:05;;;;;;;4.40;4.00;;;19.60;66.10;;;;;;4951905;28;20193;-67
2023/05/08 04:06:42;;;;;;;4.00;3.70;;;19.60;66.10;;;;;;4980355;28;20200;-66
2023/05/08 04:09:34;;;;;;;3.45;3.20;;;19.60;66.00;;;;;;4940421;28;20614;-65
2023/05/08 04:12:25;;;;;;;3.17;2.97;;;19.60;66.00;;;;;;4940485;28;20209;-67
2023/05/08 04:15:03;;;;;;;3.72;3.42;;;19.60;66.10;;;;;;4956153;28;20264;-67
2023/05/08 04:17:54;;;;;;;3.65;3.35;;;19.60;66.10;;;;;;4956191;28;20197;-67
2023/05/08 04:20:24;;;;;;;3.97;3.67;;;19.60;66.00;;;;;;4956348;28;20275;-67
2023/05/08 04:22:53;;;;;;;3.83;3.50;;;19.60;66.00;;;;;;4956133;28;20182;-67
2023/05/08 04:25:21;;;;;;;3.63;3.33;;;19.60;66.00;;;;;;4940253;28;20297;-67
2023/05/08 04:27:53;;;;;;;3.50;3.20;;;19.60;66.00;;;;;;4956212;28;20213;-68
2023/05/08 04:30:21;;;;;;;3.53;3.22;;;19.60;66.00;;;;;;4956377;28;20263;-67
2023/05/08 04:32:48;;;;;;;3.28;3.08;;;19.60;66.00;;;;;;4988765;28;20276;-66
2023/05/08 04:35:15;;;;;;;3.70;3.40;;;19.60;66.10;;;;;;4955987;28;20205;-67
2023/05/08 04:37:42;;;;;;;3.78;3.47;;;19.60;66.10;;;;;;4948141;28;20188;-68
2023/05/08 04:40:09;;;;;;;3.85;2.90;;;19.60;66.00;;;;;;4956146;28;20194;-67
2023/05/08 04:42:37;;;;;;;3.25;2.95;;;19.60;66.00;;;;;;4940455;28;20189;-67
2023/05/08 04:45:05;;;;;;;3.88;3.25;;;19.60;66.10;;;;;;4955702;28;20768;-67
2023/05/08 04:47:31;;;;;;;3.47;3.22;;;19.60;65.90;;;;;;4956273;28;20280;-67
2023/05/08 04:49:57;;;;;;;3.28;3.08;;;19.60;66.00;;;;;;4964258;28;20304;-67
2023/05/08 04:52:24;;;;;;;4.75;3.42;;;19.60;66.00;;;;;;4955935;28;20232;-66
2023/05/08 04:54:50;;;;;;;3.80;3.50;;;19.60;66.10;;;;;;4955917;28;20697;-67
2023/05/08 04:57:16;;;;;;;3.55;3.25;;;19.60;66.00;;;;;;4969664;28;20537;-67
2023/05/08 04:59:41;;;;;;;3.10;2.90;;;19.60;66.00;;;;;;4955834;28;20220;-67
2023/05/08 05:02:08;;;;;;;3.00;2.80;;;19.60;66.10;;;;;;4955827;28;20188;-68
2023/05/08 05:04:35;;;;;;;3.40;3.10;;;19.60;66.10;;;;;;4955936;28;20210;-67
2023/05/08 05:07:03;;;;;;;3.05;2.85;;;19.60;66.00;;;;;;4940335;28;20255;-67
2023/05/08 05:09:29;;;;;;;3.33;3.13;;;19.60;66.10;;;;;;4971215;28;20193;-68
2023/05/08 05:11:55;;;;;;;3.10;2.90;;;19.60;66.00;;;;;;4939891;28;20205;-68
2023/05/08 05:14:21;;;;;;;3.38;3.08;;;19.60;66.00;;;;;;4956056;28;20221;-68
2023/05/08 05:16:47;;;;;;;3.33;3.03;;;19.60;66.10;;;;;;4971652;28;20649;-67
2023/05/08 05:19:13;;;;;;;3.00;2.80;;;19.60;66.10;;;;;;4955987;28;20185;-67
2023/05/08 05:21:39;;;;;;;3.50;3.20;;;19.60;66.10;;;;;;4968708;28;20187;-68
2023/05/08 05:24:06;;;;;;;3.60;3.30;;;19.60;66.10;;;;;;4951442;28;20201;-67
2023/05/08 05:26:31;;;;;;;3.25;3.05;;;19.60;66.10;;;;;;4958340;28;20221;-67
2023/05/08 05:28:57;;;;;;;3.70;3.40;;;19.60;66.10;;;;;;4943806;28;20280;-67
2023/05/08 05:31:23;;;;;;;2.85;2.65;;;19.60;66.10;;;;;;4959056;28;20294;-67
2023/05/08 05:33:49;;;;;;;3.40;3.20;;;19.60;66.20;;;;;;4959281;28;20182;-68
2023/05/08 05:36:15;;;;;;;3.13;2.92;;;19.60;66.20;;;;;;4943017;28;20216;-67
2023/05/08 05:38:41;;;;;;;3.30;3.08;;;19.60;66.20;;;;;;4959232;28;20324;-67
2023/05/08 05:41:07;;;;;;;3.40;3.20;;;19.60;66.20;;;;;;4991397;28;20194;-67
2023/05/08 05:43:33;;;;;;;3.50;3.20;;;19.60;66.20;;;;;;4974369;28;20672;-67
2023/05/08 05:46:05;;;;;;;3.17;2.97;;;19.60;66.30;;;;;;4959302;28;20213;-68
2023/05/08 05:48:32;;;;;;;3.22;2.88;;;19.60;66.20;;;;;;4975433;28;20193;-67
2023/05/08 05:50:58;;;;;;;2.97;2.78;;;19.60;66.30;;;;;;4942881;28;20214;-66
2023/05/08 05:53:25;;;;;;;3.35;3.10;;;19.60;66.30;;;;;;4958805;28;20189;-66
2023/05/08 05:55:51;;;;;;;3.80;3.17;;;19.60;66.30;;;;;;4942420;28;20716;-67
2023/05/08 05:58:18;;;;;;;2.85;2.65;;;19.60;66.30;;;;;;4943754;28;20216;-67
2023/05/08 06:00:46;;;;;;;3.08;2.72;;;19.60;66.30;;;;;;4958701;28;20273;-67
2023/05/08 06:03:13;;;;;;;3.22;2.92;;;19.60;66.30;;;;;;4974978;28;20752;-68
2023/05/08 06:05:39;;;;;;;2.78;2.58;;;19.60;66.20;;;;;;4984389;28;20202;-67
2023/05/08 06:08:07;;;;;;;2.88;2.67;;;19.60;66.20;;;;;;4953980;28;20194;-67
2023/05/08 06:10:33;;;;;;;2.75;2.55;;;19.60;66.20;;;;;;4958339;28;20214;-67
2023/05/08 06:12:59;;;;;;;2.97;2.50;;;19.60;66.30;;;;;;4958346;28;20221;-67
2023/05/08 06:15:25;;;;;;;3.10;2.80;;;19.60;66.30;;;;;;4958420;28;20205;-67
2023/05/08 06:17:53;;;;;;;3.17;2.97;;;19.60;66.30;;;;;;4958382;28;20186;-67
2023/05/08 06:20:19;;;;;;;3.15;2.92;;;19.60;66.40;;;;;;4942686;28;20205;-67
2023/05/08 06:22:44;;;;;;;2.97;2.78;;;19.60;66.30;;;;;;4958437;28;20185;-67
2023/05/08 06:25:10;;;;;;;2.65;2.45;;;19.60;66.30;;;;;;4958391;28;20221;-66
2023/05/08 06:27:36;;;;;;;2.88;2.67;;;19.60;66.30;;;;;;4975433;28;20205;-66
2023/05/08 06:30:06;;;;;;;3.20;2.67;;;19.60;66.30;;;;;;4958081;28;20304;-66
2023/05/08 06:32:32;;;;;;;3.15;2.92;;;19.60;66.30;;;;;;4965287;28;20197;-67
2023/05/08 06:34:58;;;;;;;2.85;2.65;;;19.60;66.30;;;;;;4958029;28;20260;-66
2023/05/08 06:37:23;;;;;;;3.25;3.00;;;19.60;66.40;;;;;;4958047;28;20186;-67
2023/05/08 06:39:49;;;;;;;3.63;3.33;;;19.60;66.30;;;;;;4958041;28;20197;-67
2023/05/08 06:42:15;;;;;;;3.30;3.00;;;19.60;66.30;;;;;;4974392;28;20201;-67
2023/05/08 06:44:44;;;;;;;3.30;3.00;;;19.60;66.30;;;;;;4950129;28;20205;-68
2023/05/08 06:47:10;;;;;;;2.75;2.60;;;19.60;66.30;;;;;;4957712;28;20193;-67
2023/05/08 06:49:36;;;;;;;3.10;2.90;;;19.60;66.30;;;;;;4973765;28;20197;-66
2023/05/08 06:52:02;;;;;;;3.55;3.20;;;19.60;66.40;;;;;;4957871;28;20189;-67
2023/05/08 06:54:28;;;;;;;3.13;2.72;;;19.60;66.30;;;;;;4957520;28;20229;-67
2023/05/08 06:56:53;;;;;;;3.75;3.13;;;19.60;66.30;;;;;;4957808;28;20269;-67
2023/05/08 06:59:22;;;;;;;6.00;3.10;;;19.60;66.30;;;;;;4974810;28;20221;-67
2023/05/08 07:01:47;;;;;;;3.53;3.22;;;19.60;66.40;;;;;;4957994;28;20197;-68
2023/05/08 07:04:13;;;;;;;3.10;2.90;;;19.60;66.40;;;;;;4989788;28;20209;-66
2023/05/08 07:06:39;;;;;;;3.25;3.00;;;19.60;66.40;;;;;;4957337;28;20189;-67
2023/05/08 07:09:05;;;;;;;3.72;3.30;;;19.60;66.30;;;;;;4957387;28;20201;-66
2023/05/08 07:11:31;;;;;;;2.78;2.58;;;19.60;66.50;;;;;;4957505;28;20217;-67
2023/05/08 07:13:56;;;;;;;3.78;3.38;;;19.60;66.40;;;;;;4981904;28;20193;-67
2023/05/08 07:16:22;;;;;;;2.90;2.70;;;19.60;67.10;;;;;;4957043;28;20194;-67
2023/05/08 07:18:48;;;;;;;3.55;3.20;;;19.60;67.10;;;;;;4957284;28;20177;-67
2023/05/08 07:21:16;;;;;;;3.28;3.03;;;19.60;66.40;;;;;;4957275;28;20198;-67
2023/05/08 07:23:42;;;;;;;3.50;3.20;;;19.60;66.50;;;;;;4973271;28;20200;-67
2023/05/08 07:26:08;;;;;;;3.50;3.20;;;19.60;66.50;;;;;;4956902;28;20214;-67
2023/05/08 07:28:34;;;;;;;3.30;3.03;;;19.60;66.50;;;;;;4989655;28;20672;-67
2023/05/08 07:31:05;;;;;;;3.00;2.80;;;19.60;66.50;;;;;;4969860;28;20222;-67
2023/05/08 07:33:32;;;;;;;3.40;3.10;;;19.60;66.50;;;;;;4955382;28;20206;-67
2023/05/08 07:35:59;;;;;;;3.30;3.00;;;19.60;66.50;;;;;;4956666;28;20214;-67
2023/05/08 07:38:25;;;;;;;3.65;3.35;;;19.60;66.50;;;;;;4940817;28;20193;-67
2023/05/08 07:40:53;;;;;;;4.07;3.78;;;19.60;66.50;;;;;;4941119;28;20252;-67
2023/05/08 07:43:19;;;;;;;3.40;3.20;;;19.60;66.40;;;;;;4956809;28;20241;-66
2023/05/08 07:45:44;;;;;;;3.42;3.13;;;19.60;66.50;;;;;;4956789;28;20209;-67
2023/05/08 07:48:10;;;;;;;3.80;3.40;;;19.60;66.50;;;;;;4956359;28;20193;-67
2023/05/08 07:50:36;;;;;;;3.80;3.50;;;19.60;66.40;;;;;;4973821;28;20221;-67
2023/05/08 07:53:02;;;;;;;4.10;3.70;;;19.60;66.50;;;;;;4973956;28;20194;-68
2023/05/08 07:55:27;;;;;;;4.13;3.83;;;19.60;66.50;;;;;;4970141;28;20214;-66
2023/05/08 07:57:53;;;;;;;3.70;3.40;;;19.60;66.50;;;;;;4940599;28;20192;-66
2023/05/08 08:00:19;;;;;;;3.67;3.38;;;19.60;66.50;;;;;;4956630;28;20193;-66
2023/05/08 08:02:45;;;;;;;3.92;3.63;;;19.60;66.50;;;;;;4940745;28;20189;-66
2023/05/08 08:05:11;;;;;;;4.38;4.03;;;19.60;66.50;;;;;;4940218;28;20213;-67
2023/05/08 08:07:37;;;;;;;3.75;3.45;;;19.60;66.50;;;;;;4956717;28;20197;-67
2023/05/08 08:10:04;;;;;;;4.20;3.90;;;19.60;66.50;;;;;;4956637;28;20217;-67
2023/05/08 08:12:30;;;;;;;4.35;3.95;;;19.60;66.50;;;;;;4940284;28;20206;-66
2023/05/08 08:14:56;;;;;;;4.88;4.47;;;19.60;66.50;;;;;;4972246;28;20209;-66
2023/05/08 08:17:22;;;;;;;4.35;4.00;;;19.60;66.50;;;;;;4969149;28;20202;-66
2023/05/08 08:19:48;;;;;;;4.03;3.72;;;19.60;66.50;;;;;;4956546;28;20185;-67
2023/05/08 08:22:14;;;;;;;4.20;3.90;;;19.60;66.50;;;;;;4940302;28;20190;-67
2023/05/08 08:24:40;;;;;;;5.15;4.75;;;19.60;66.50;;;;;;4972027;28;20209;-67
2023/05/08 08:27:07;;;;;;;4.00;3.70;;;19.60;66.50;;;;;;4956338;28;20202;-67
2023/05/08 08:29:33;;;;;;;4.25;3.95;;;19.60;66.50;;;;;;4956255;28;20248;-67
2023/05/08 08:31:59;;;;;;;4.60;4.20;;;19.60;66.50;;;;;;4955987;28;20210;-67
2023/05/08 08:34:25;;;;;;;4.40;4.10;;;19.60;66.50;;;;;;4939971;28;20236;-67
2023/05/08 08:36:51;;;;;;;4.38;3.97;;;19.60;66.50;;;;;;4955917;28;20181;-67
2023/05/08 08:39:16;;;;;;;4.32;4.03;;;19.60;66.50;;;;;;4956349;28;20194;-68
2023/05/08 08:41:42;;;;;;;4.65;4.25;;;19.60;66.50;;;;;;4971229;28;20194;-66
2023/05/08 08:44:08;;;;;;;4.55;4.15;;;19.60;66.50;;;;;;4956051;28;20195;-66
2023/05/08 08:46:42;;;;;;;4.38;4.07;;;19.60;66.50;;;;;;4955762;28;20198;-67
2023/05/08 08:49:12;;;;;;;5.18;4.75;;;19.60;66.50;;;;;;4956382;28;20189;-67
2023/05/08 08:51:50;;;;;;;4.40;4.10;;;19.60;66.50;;;;;;4955789;28;20218;-67
2023/05/08 08:54:28;;;;;;;4.63;4.28;;;19.60;66.50;;;;;;4956121;28;20221;-66
2023/05/08 08:56:55;;;;;;;5.10;4.70;;;19.60;66.40;;;;;;4955884;28;20274;-67
2023/05/08 08:59:24;;;;;;;5.38;4.88;;;19.60;66.50;;;;;;4988310;28;20673;-67
2023/05/08 09:01:57;;;;;;;4.30;4.00;;;19.60;66.50;;;;;;4968890;28;20185;-67
2023/05/08 09:04:26;;;;;;;4.05;3.75;;;19.60;66.50;;;;;;4958840;28;20217;-67
2023/05/08 09:06:53;;;;;;;4.38;4.07;;;19.60;66.50;;;;;;4969054;28;20193;-67
2023/05/08 09:09:19;;;;;;;4.50;4.10;;;19.60;66.50;;;;;;4960068;28;20200;-65
2023/05/08 09:11:46;;;;;;;5.10;4.70;;;19.60;67.30;;;;;;4959512;28;20259;-67
2023/05/08 09:14:12;;;;;;;5.18;4.72;;;19.60;66.50;;;;;;4959515;28;20653;-66
2023/05/08 09:16:38;;;;;;;4.45;4.15;;;19.60;66.50;;;;;;4959335;28;20197;-67
2023/05/08 09:19:04;;;;;;;4.68;4.28;;;19.70;66.60;;;;;;4959712;28;20216;-68
2023/05/08 09:21:31;;;;;;;4.57;4.28;;;19.70;66.60;;;;;;4959399;28;20284;-67
2023/05/08 09:24:03;;;;;;;4.85;4.45;;;19.70;66.60;;;;;;4959658;28;20193;-66
2023/05/08 09:26:34;;;;;;;4.65;4.35;;;19.70;66.40;;;;;;4959159;28;20216;-66
2023/05/08 09:29:21;;;;;;;4.50;4.10;;;19.70;66.40;;;;;;4972522;28;20191;-67
2023/05/08 09:31:49;;;;;;;4.50;4.10;;;19.70;66.50;;;;;;4974774;28;20214;-66
2023/05/08 09:34:29;;;;;;;4.53;4.22;;;19.70;66.40;;;;;;4943557;28;20212;-67
2023/05/08 09:37:04;;;;;;;4.57;4.18;;;19.70;66.60;;;;;;4959123;28;20240;-67
2023/05/08 09:39:29;;;;;;;4.15;3.85;;;19.70;66.60;;;;;;4943026;28;20193;-67
2023/05/08 09:41:59;;;;;;;4.63;4.22;;;19.70;66.60;;;;;;4975142;28;20218;-67
2023/05/08 09:44:26;;;;;;;4.65;4.25;;;19.60;66.50;;;;;;4958948;28;20221;-66
2023/05/08 09:47:09;;;;;;;4.53;4.22;;;19.70;66.60;;;;;;4974795;28;20198;-67
2023/05/08 09:49:35;;;;;;;4.28;3.97;;;19.70;66.60;;;;;;4991069;28;20657;-67
2023/05/08 09:52:01;;;;;;;4.63;4.22;;;19.70;66.60;;;;;;4957852;28;20209;-68
2023/05/08 09:54:26;;;;;;;4.55;4.20;;;19.70;66.60;;;;;;4958904;28;20224;-67
2023/05/08 09:56:52;;;;;;;4.75;4.35;;;19.60;66.50;;;;;;4958591;28;20194;-67
2023/05/08 09:59:30;;;;;;;4.10;3.80;;;19.70;66.60;;;;;;4958680;28;20720;-68
2023/05/08 10:01:56;;;;;;;4.07;3.78;;;19.60;66.50;;;;;;4959301;28;20200;-67
2023/05/08 10:04:36;;;;;;;4.07;3.78;;;19.70;66.60;;;;;;4958467;28;20216;-66
2023/05/08 10:07:03;;;;;;;4.20;3.90;;;19.70;66.60;;;;;;4983813;28;20193;-66
2023/05/08 10:09:29;;;;;;;4.50;4.20;;;19.70;66.60;;;;;;4958316;28;20228;-67
2023/05/08 10:11:55;;;;;;;4.63;4.22;;;19.70;66.60;;;;;;4962841;28;20677;-67
2023/05/08 10:14:23;;;;;;;4.07;3.78;;;19.70;66.60;;;;;;4971288;28;20228;-68
2023/05/08 10:16:52;;;;;;;4.00;3.70;;;19.70;66.60;;;;;;4958319;28;20196;-67
2023/05/08 10:19:27;;;;;;;4.40;4.10;;;19.70;66.60;;;;;;4975711;28;20194;-66
2023/05/08 10:21:55;;;;;;;4.03;3.72;;;19.70;66.60;;;;;;4975849;28;20196;-67
2023/05/08 10:24:32;;;;;;;4.93;4.47;;;19.70;66.60;;;;;;4958184;28;20260;-66
2023/05/08 10:27:12;;;;;;;4.63;4.22;;;19.70;66.60;;;;;;4934691;28;20185;-67
2023/05/08 10:29:51;;;;;;;4.20;3.90;;;19.70;66.60;;;;;;4958214;28;20210;-67
2023/05/08 10:32:20;;;;;;;4.95;4.50;;;19.70;66.60;;;;;;4958254;28;20197;-67
2023/05/08 10:34:52;;;;;;;4.18;3.80;;;19.70;66.60;;;;;;4957857;28;20205;-66
2023/05/08 10:37:19;;;;;;;4.35;4.05;;;19.70;66.60;;;;;;4958222;28;20194;-68
2023/05/08 10:39:47;;;;;;;4.20;3.90;;;19.70;66.60;;;;;;4958270;28;20189;-68
2023/05/08 10:42:16;;;;;;;4.72;4.32;;;19.80;66.70;;;;;;4958119;28;20197;-68
2023/05/08 10:44:42;;;;;;;4.70;4.30;;;19.80;66.70;;;;;;4957642;28;20222;-67
2023/05/08 10:47:32;;;;;;;4.55;4.25;;;19.80;66.70;;;;;;4975139;28;20221;-67
2023/05/08 10:50:38;;;;;;;4.85;4.45;;;19.80;66.80;;;;;;4941761;28;20189;-67
2023/05/08 10:53:16;;;;;;;5.03;4.63;;;19.80;67.00;;;;;;4947564;29;20276;-67
2023/05/08 10:55:48;;;;;;;5.55;4.97;;;19.80;66.80;;;;;;4955501;28;20225;-67
2023/05/08 10:58:29;;;;;;;5.95;5.13;;;19.80;67.00;;;;;;4957862;28;20200;-68
2023/05/08 11:01:05;;;;;;;5.65;5.15;;;19.80;67.00;;;;;;4973716;28;20248;-67
2023/05/08 11:03:38;;;;;;;5.43;4.93;;;19.80;66.90;;;;;;4941684;28;20198;-66
2023/05/08 11:06:03;;;;;;;5.07;4.68;;;19.80;67.10;;;;;;4967565;28;20220;-67
2023/05/08 11:08:31;;;;;;;6.75;5.50;;;19.80;67.30;;;;;;4941470;28;20186;-66
2023/05/08 11:11:00;;;;;;;5.30;4.90;;;19.80;67.10;;;;;;4957322;28;20198;-66
2023/05/08 11:13:52;;;;;;;5.93;5.32;;;19.80;67.10;;;;;;4941769;28;20197;-67
2023/05/08 11:16:52;;;;;;;6.53;5.93;;;19.80;67.10;;;;;;4957245;28;20210;-67
2023/05/08 11:19:23;;;;;;;5.93;5.32;;;19.80;67.10;;;;;;4968032;28;20201;-67
2023/05/08 11:22:28;;;;;;;6.40;5.85;;;19.80;67.00;;;;;;4957208;28;20248;-67
2023/05/08 11:24:58;;;;;;;6.47;5.88;;;19.80;67.10;;;;;;4956656;28;20221;-67
2023/05/08 11:27:45;;;;;;;6.35;5.75;;;19.80;67.30;;;;;;4957286;28;20200;-67
2023/05/08 11:30:43;;;;;;;6.55;5.93;;;19.90;67.30;;;;;;4974359;28;20287;-67
2023/05/08 11:33:08;;;;;;;7.00;5.60;;;19.80;67.10;;;;;;4931661;28;20689;-67
2023/05/08 11:35:43;;;;;;;7.25;6.30;;;19.80;67.00;;;;;;4957915;28;20233;-67
2023/05/08 11:38:21;;;;;;;6.70;6.03;;;19.80;67.00;;;;;;4989202;28;20192;-67
2023/05/08 11:41:03;;;;;;;6.60;6.00;;;19.90;67.20;;;;;;4972981;28;20189;-66
2023/05/08 11:43:32;;;;;;;6.57;5.97;;;19.90;67.30;;;;;;4956982;28;20193;-67
2023/05/08 11:46:07;;;;;;;7.10;6.40;;;19.90;67.20;;;;;;4956635;28;20283;-67
2023/05/08 11:48:34;;;;;;;7.05;6.35;;;19.80;67.40;;;;;;4969925;28;20197;-67
2023/05/08 11:51:02;;;;;;;6.47;5.88;;;19.90;67.50;;;;;;4948656;28;20622;-67
2023/05/08 11:53:30;;;;;;;7.07;6.38;;;19.90;67.30;;;;;;4956963;28;20199;-66
2023/05/08 11:55:56;;;;;;;7.00;6.30;;;19.90;67.60;;;;;;4956681;28;20240;-67
2023/05/08 11:58:22;;;;;;;6.72;6.13;;;19.90;67.30;;;;;;4973010;28;20190;-67
2023/05/08 12:00:48;;;;;;;7.10;6.40;;;19.80;67.40;;;;;;4956698;28;20194;-67
2023/05/08 12:03:20;;;;;;;7.45;6.68;;;19.90;67.40;;;;;;4940879;28;20194;-67
2023/05/08 12:05:48;;;;;;;7.75;6.90;;;19.90;67.30;;;;;;4956301;28;20209;-67
2023/05/08 12:08:16;;;;;;;8.00;6.90;;;19.90;67.10;;;;;;4956525;28;20200;-67
2023/05/08 12:10:45;;;;;;;6.85;6.25;;;19.80;67.20;;;;;;4956450;28;20217;-67
2023/05/08 12:13:27;;;;;;;7.68;6.72;;;19.90;67.20;;;;;;4956326;28;20201;-67
2023/05/08 12:15:56;;;;;;;7.05;6.35;;;19.80;67.10;;;;;;4940169;28;20217;-67
2023/05/08 12:18:25;;;;;;;7.55;6.82;;;19.90;67.20;;;;;;4988800;28;20272;-67
2023/05/08 12:21:00;;;;;;;7.15;6.55;;;19.90;67.50;;;;;;4956559;28;20197;-68
2023/05/08 12:23:28;;;;;;;7.30;6.60;;;19.80;67.30;;;;;;4972307;28;20207;-67
2023/05/08 12:25:58;;;;;;;6.63;6.03;;;19.90;67.40;;;;;;4971804;28;20213;-67
2023/05/08 12:28:23;;;;;;;7.40;6.60;;;19.90;67.40;;;;;;4956356;28;20193;-67
2023/05/08 12:30:50;;;;;;;7.43;6.72;;;19.90;67.50;;;;;;4955860;28;20577;-67
2023/05/08 12:33:18;;;;;;;7.70;6.78;;;19.90;67.50;;;;;;4956040;28;20248;-68
2023/05/08 12:35:43;;;;;;;7.43;6.63;;;19.90;67.60;;;;;;4955679;28;20224;-67
2023/05/08 12:38:10;;;;;;;7.13;6.43;;;19.90;67.70;;;;;;4955938;28;20674;-66
2023/05/08 12:40:54;;;;;;;7.22;6.50;;;19.90;67.50;;;;;;4956065;28;20193;-67
2023/05/08 12:43:30;;;;;;;7.18;6.53;;;19.90;67.50;;;;;;4955932;28;20243;-67
2023/05/08 12:45:56;;;;;;;6.65;6.03;;;19.90;67.40;;;;;;4955838;28;20654;-66
2023/05/08 12:48:22;;;;;;;7.18;6.47;;;19.90;67.60;;;;;;4939943;28;20249;-66
2023/05/08 12:50:47;;;;;;;8.15;6.60;;;19.90;67.70;;;;;;4950001;28;20312;-66
2023/05/08 12:53:19;;;;;;;6.28;5.68;;;19.90;67.70;;;;;;4940040;28;20185;-67
2023/05/08 12:55:54;;;;;;;6.53;5.82;;;19.80;67.50;;;;;;4955451;28;20228;-67
2023/05/08 12:58:25;;;;;;;6.03;5.53;;;19.80;67.30;;;;;;4956200;28;20271;-66
2023/05/08 13:00:53;;;;;;;7.00;6.40;;;19.90;67.30;;;;;;4956036;28;20201;-67
2023/05/08 13:03:28;;;;;;;6.38;5.78;;;19.90;67.40;;;;;;4955930;28;20662;-66
2023/05/08 13:05:56;;;;;;;6.28;5.65;;;19.90;68.00;;;;;;4955669;28;20216;-67
2023/05/08 13:08:34;;;;;;;6.18;5.57;;;19.90;67.70;;;;;;4955960;28;20193;-67